Capitol Logistics 3281




TJSJ
Luis Munoz Marin International Airport
San Juan, PR
TNCM
Princess Juliana International Airport
St. Maarten, SX

Activity Log

Date Flight Route Aircraft Duration
04/14/2021 CPX3281 SJU RTE2 STT A638 PJM SF34 1h 00m

Route Details

Aircraft Information
Primary: Saab 340AF
Backup: Not Available
Route Data
Distance: 192nm
Duration: 0h 51m
Recm'd Route: SJU RTE2 STT A638 PJM
Origin Wx: TJSJ 191256Z 10012KT 9SM FEW029 SCT050 SCT095 29/23 A3011 RMK AO2 SLP196 HZ ALQDS T02940228
Dest. Wx: TNCM 191300Z 05010KT 020V080 9999 -SHRA BKN014 28/25 Q1020 RERA TEMPO SHRA
Notes: